Plymouth Township, Ohio
Current Conditions -  °F | °C
As of 7:53 AM on Friday 19 Dec 2014 (Local Time) from KHZY Reporting Station
Overcast Overcast  
Wind Chill: 21°   Ceiling: 2200
Heat Index: 29°   Visibility: 10mi
Dew Point: 23°   Wind: 8mph
Humidity: 78%   Direction: 300°WNW
Pressure: 30.19"   Gusts: NA
Location:  41.8515°N, 80.79°W
Report Text: KHZY 191253Z AUTO 30007KT 10SM BKN022 OVC027 M02/M05 A3019 RMK AO2 SLP235 T10171050
Loading
Personal Weather Stations






























Interactive Weather Map New forecast layout! Learn more

10-Day Weather Forecast

Advertisements
Track Severe Weather on mobile